Time;durP1;ratioP1;P1;durP2;ratioP2;P2;SDS_P1;SDS_P2;PMS_P1;PMS_P2;Temp;Humidity;BMP_temperature;BMP_pressure;BME280_temperature;BME280_humidity;BME280_pressure;Samples;Min_cycle;Max_cycle;Signal;HPM_P1;HPM_P2
2022/03/15 00:01:19;;;;;;;61.47;28.92;;;8.30;99.90;;;;;;5036318;28;20167;-72
2022/03/15 00:03:46;;;;;;;55.78;30.40;;;8.30;99.90;;;;;;5036417;28;20026;-72
2022/03/15 00:06:12;;;;;;;58.20;28.08;;;8.30;99.90;;;;;;5035953;28;20405;-72
2022/03/15 00:08:37;;;;;;;55.38;28.98;;;8.30;99.90;;;;;;5036565;28;20100;-73
2022/03/15 00:11:05;;;;;;;62.50;27.95;;;8.20;99.90;;;;;;5018733;28;20124;-73
2022/03/15 00:13:33;;;;;;;67.15;29.30;;;8.20;99.90;;;;;;5036835;28;20025;-73
2022/03/15 00:16:00;;;;;;;59.10;29.65;;;8.20;99.90;;;;;;5036769;28;20029;-71
2022/03/15 00:18:27;;;;;;;61.65;29.98;;;8.10;99.90;;;;;;5037020;28;20021;-71
2022/03/15 00:20:53;;;;;;;63.42;29.25;;;8.10;99.90;;;;;;5026624;28;20025;-73
2022/03/15 00:23:19;;;;;;;60.33;29.77;;;8.00;99.90;;;;;;5058077;28;20032;-73
2022/03/15 00:25:44;;;;;;;69.40;30.83;;;8.10;99.90;;;;;;5059028;28;20025;-73
2022/03/15 00:28:10;;;;;;;57.15;29.30;;;8.00;99.90;;;;;;5059550;28;20016;-73
2022/03/15 00:30:36;;;;;;;60.40;29.20;;;8.10;99.90;;;;;;5041738;28;20109;-73
2022/03/15 00:33:01;;;;;;;68.43;31.73;;;8.10;99.90;;;;;;5059345;28;20033;-73
2022/03/15 00:35:27;;;;;;;62.80;30.85;;;8.00;99.90;;;;;;5058322;28;20040;-72
2022/03/15 00:37:55;;;;;;;60.08;29.55;;;8.00;99.90;;;;;;5041000;28;20026;-72
2022/03/15 00:40:22;;;;;;;65.70;30.40;;;8.00;99.90;;;;;;5059662;28;20064;-72
2022/03/15 00:42:49;;;;;;;63.42;30.00;;;8.00;99.90;;;;;;5059323;28;20036;-73
2022/03/15 00:45:15;;;;;;;65.43;31.23;;;8.00;99.90;;;;;;5058806;28;20044;-72
2022/03/15 00:47:41;;;;;;;56.85;28.45;;;7.90;99.90;;;;;;5039630;28;20057;-71
2022/03/15 00:50:07;;;;;;;60.67;30.70;;;7.80;99.90;;;;;;5035756;28;20470;-72
2022/03/15 00:52:33;;;;;;;56.78;29.77;;;7.80;99.90;;;;;;5035594;28;20415;-72
2022/03/15 00:54:58;;;;;;;65.00;29.75;;;7.80;99.90;;;;;;5034334;28;20072;-72
2022/03/15 00:57:24;;;;;;;65.63;29.05;;;7.80;99.90;;;;;;5016161;28;20394;-72
2022/03/15 00:59:50;;;;;;;56.00;26.63;;;7.80;99.90;;;;;;5034255;28;20024;-71
2022/03/15 01:02:16;;;;;;;56.47;27.45;;;7.80;99.90;;;;;;5034315;28;20482;-72
2022/03/15 01:04:41;;;;;;;57.30;29.20;;;7.70;99.90;;;;;;5034079;28;20423;-71
2022/03/15 01:07:07;;;;;;;50.80;28.10;;;7.60;99.90;;;;;;5020700;23;20050;-74
2022/03/15 01:09:34;;;;;;;61.72;30.85;;;7.60;99.90;;;;;;4994498;28;20022;-72
2022/03/15 01:11:59;;;;;;;53.55;30.67;;;7.60;99.90;;;;;;4993862;28;20027;-72
2022/03/15 01:14:27;;;;;;;56.40;31.38;;;7.70;99.90;;;;;;4993759;28;20041;-73
2022/03/15 01:16:54;;;;;;;56.13;29.88;;;7.70;99.90;;;;;;4993707;28;20092;-73
2022/03/15 01:19:20;;;;;;;57.38;29.92;;;7.70;99.90;;;;;;4993862;28;20022;-73
2022/03/15 01:21:45;;;;;;;50.55;27.95;;;7.60;99.90;;;;;;4993579;28;20030;-73
2022/03/15 01:24:11;;;;;;;50.78;28.42;;;7.70;99.90;;;;;;4992661;28;20034;-73
2022/03/15 01:26:39;;;;;;;54.85;28.42;;;7.60;99.90;;;;;;4993411;28;20030;-73
2022/03/15 01:29:05;;;;;;;53.40;27.83;;;7.60;99.90;;;;;;4993491;28;20038;-73
2022/03/15 01:31:31;;;;;;;63.80;28.88;;;7.60;99.90;;;;;;4993740;28;20377;-72
2022/03/15 01:33:57;;;;;;;63.10;28.67;;;7.60;99.90;;;;;;4992213;28;20038;-73
2022/03/15 01:36:23;;;;;;;59.15;30.05;;;7.50;99.90;;;;;;4993048;28;20026;-72
2022/03/15 01:38:50;;;;;;;71.10;28.95;;;7.50;99.90;;;;;;4993889;28;20034;-73
2022/03/15 01:41:16;;;;;;;57.88;30.10;;;7.50;99.90;;;;;;4993412;28;20097;-73
2022/03/15 01:43:41;;;;;;;53.92;29.17;;;7.50;99.90;;;;;;4993137;28;20122;-73
2022/03/15 01:46:07;;;;;;;59.03;30.35;;;7.50;99.90;;;;;;4992115;28;20117;-74
2022/03/15 01:48:33;;;;;;;51.83;29.10;;;7.60;99.90;;;;;;4993065;28;20431;-75
2022/03/15 01:50:59;;;;;;;52.72;29.38;;;7.60;99.90;;;;;;4993031;28;20499;-73
2022/03/15 01:53:25;;;;;;;89.00;29.95;;;7.50;99.90;;;;;;4993299;28;20054;-73
2022/03/15 01:55:50;;;;;;;57.15;30.92;;;7.50;99.90;;;;;;4992808;28;20030;-73
2022/03/15 01:58:16;;;;;;;58.67;31.55;;;7.50;99.90;;;;;;4992987;28;20033;-73
2022/03/15 02:00:42;;;;;;;64.10;32.08;;;7.50;99.90;;;;;;4993512;28;20479;-72
2022/03/15 02:03:07;;;;;;;59.05;31.85;;;7.60;99.90;;;;;;4993405;28;20081;-73
2022/03/15 02:05:33;;;;;;;64.43;31.60;;;7.60;99.90;;;;;;4993173;28;20106;-74
2022/03/15 02:08:10;;;;;;;58.63;31.60;;;7.60;99.90;;;;;;4993920;28;20065;-74
2022/03/15 02:10:36;;;;;;;64.45;32.78;;;7.60;99.90;;;;;;5005987;28;20026;-73
2022/03/15 04:24:47;;;;;;;90.20;41.45;;;6.70;99.90;;;;;;4995248;28;20069;-74
2022/03/15 04:27:13;;;;;;;96.13;41.05;;;6.70;99.90;;;;;;4995248;28;20026;-74
2022/03/15 04:29:38;;;;;;;89.40;38.97;;;6.70;99.90;;;;;;4996225;28;20475;-74
2022/03/15 04:32:04;;;;;;;89.43;40.90;;;6.70;99.90;;;;;;4996305;28;20085;-74
2022/03/15 04:34:31;;;;;;;92.72;42.03;;;6.60;99.90;;;;;;4996650;28;20431;-74
2022/03/15 04:36:57;;;;;;;98.68;43.40;;;6.70;99.90;;;;;;4995014;28;20026;-73
2022/03/15 04:39:23;;;;;;;101.55;43.63;;;6.70;99.90;;;;;;4996076;28;20488;-74
2022/03/15 04:41:50;;;;;;;94.65;41.17;;;6.70;99.90;;;;;;4995868;28;20053;-74
2022/03/15 04:44:16;;;;;;;92.82;41.17;;;6.80;99.90;;;;;;4995032;28;20030;-74
2022/03/15 04:46:41;;;;;;;88.90;40.60;;;6.80;99.90;;;;;;4995738;28;20400;-74
2022/03/15 04:49:07;;;;;;;91.28;41.20;;;6.80;99.90;;;;;;4995792;28;20030;-75
2022/03/15 04:51:32;;;;;;;86.70;39.72;;;6.80;99.90;;;;;;4995574;28;20022;-74
2022/03/15 04:53:58;;;;;;;86.85;39.85;;;6.80;99.90;;;;;;4995497;28;20038;-75
2022/03/15 04:56:23;;;;;;;84.85;40.60;;;6.80;99.90;;;;;;4994954;28;20035;-74
2022/03/15 04:58:49;;;;;;;83.00;40.13;;;6.80;99.90;;;;;;4994267;28;20538;-73
2022/03/15 05:01:15;;;;;;;92.15;41.20;;;6.80;99.90;;;;;;4995164;28;20034;-74
2022/03/15 05:03:40;;;;;;;89.97;40.53;;;6.80;99.90;;;;;;4995231;28;20041;-77
2022/03/15 05:06:06;;;;;;;88.18;41.50;;;6.80;99.90;;;;;;4995064;28;20033;-71
2022/03/15 05:08:31;;;;;;;89.00;40.80;;;6.80;99.90;;;;;;4994339;28;20403;-72
2022/03/15 05:11:06;;;;;;;72.68;36.05;;;6.80;99.90;;;;;;4995237;28;20026;-74
2022/03/15 05:13:49;;;;;;;65.72;32.58;;;6.80;99.90;;;;;;4995792;28;20442;-73
2022/03/15 05:16:18;;;;;;;62.15;32.58;;;6.80;99.90;;;;;;4996598;28;20044;-74
2022/03/15 05:18:48;;;;;;;63.63;33.88;;;6.80;99.90;;;;;;4997209;28;20464;-73
2022/03/15 05:21:16;;;;;;;65.65;33.90;;;6.80;99.90;;;;;;4994440;28;20038;-73
2022/03/15 05:23:43;;;;;;;61.45;32.55;;;6.80;99.90;;;;;;4995250;28;20026;-74
2022/03/15 05:26:08;;;;;;;54.63;29.92;;;6.80;99.90;;;;;;4994603;28;20039;-75
2022/03/15 05:28:34;;;;;;;55.45;29.90;;;6.80;99.90;;;;;;4994762;28;20511;-76
2022/03/15 05:30:59;;;;;;;58.10;32.67;;;6.90;99.90;;;;;;4994433;28;20128;-74
2022/03/15 05:33:25;;;;;;;63.58;34.15;;;6.90;99.90;;;;;;4994591;28;20084;-74
2022/03/15 05:35:50;;;;;;;61.45;33.45;;;6.90;99.90;;;;;;4994659;28;20090;-74
2022/03/15 05:38:16;;;;;;;59.92;33.08;;;7.00;99.90;;;;;;4997880;28;20026;-74
2022/03/15 05:40:42;;;;;;;64.03;34.80;;;7.00;99.90;;;;;;4997943;28;20081;-74
2022/03/15 05:43:08;;;;;;;67.32;36.05;;;7.10;99.90;;;;;;4998550;28;20028;-74
2022/03/15 05:45:34;;;;;;;60.17;32.38;;;7.10;99.90;;;;;;4997428;28;20073;-75
2022/03/15 05:48:00;;;;;;;52.55;28.73;;;7.10;99.90;;;;;;4997492;28;20172;-74
2022/03/15 05:50:25;;;;;;;49.70;29.73;;;7.10;99.90;;;;;;4995917;28;20476;-76
2022/03/15 05:52:51;;;;;;;46.97;28.83;;;7.10;99.90;;;;;;4996454;28;20375;-74
2022/03/15 05:55:17;;;;;;;56.35;29.45;;;6.90;99.90;;;;;;5000679;28;20479;-75
2022/03/15 05:57:42;;;;;;;51.42;29.38;;;6.80;99.90;;;;;;5004777;28;20046;-75
2022/03/15 06:00:10;;;;;;;57.88;29.30;;;6.80;99.90;;;;;;4999290;28;20026;-75
2022/03/15 06:02:36;;;;;;;52.03;29.88;;;6.70;99.90;;;;;;4994089;28;20041;-74
2022/03/15 06:05:03;;;;;;;49.33;29.33;;;6.70;99.90;;;;;;4994060;28;20464;-74
2022/03/15 06:07:29;;;;;;;67.65;30.65;;;6.70;99.90;;;;;;4994050;28;20528;-73
2022/03/15 06:09:57;;;;;;;51.33;28.77;;;6.60;99.90;;;;;;4994368;28;20029;-73
2022/03/15 06:12:24;;;;;;;90.55;31.15;;;6.60;99.90;;;;;;4994948;28;20026;-73
2022/03/15 06:14:50;;;;;;;45.25;25.92;;;6.60;99.90;;;;;;4994056;28;20018;-73
2022/03/15 06:17:16;;;;;;;53.63;24.70;;;6.60;99.90;;;;;;4995432;28;20093;-74
2022/03/15 06:19:41;;;;;;;44.63;24.60;;;6.50;99.90;;;;;;4993953;28;20082;-75
2022/03/15 06:22:07;;;;;;;59.00;27.55;;;6.50;99.90;;;;;;4993818;28;20162;-74
2022/03/15 06:24:32;;;;;;;53.28;27.45;;;6.40;99.90;;;;;;4993440;28;20030;-76
2022/03/15 06:26:58;;;;;;;65.32;27.83;;;6.40;99.90;;;;;;4993335;28;20504;-76
2022/03/15 06:29:25;;;;;;;48.90;26.73;;;6.40;99.90;;;;;;4994014;28;20030;-73
2022/03/15 06:31:51;;;;;;;59.58;27.00;;;6.40;99.90;;;;;;4993508;28;20057;-76
2022/03/15 06:34:16;;;;;;;73.82;32.38;;;6.20;99.90;;;;;;4998540;28;20018;-76
2022/03/15 06:36:42;;;;;;;67.72;33.03;;;6.20;99.90;;;;;;4995507;28;20023;-74
2022/03/15 06:39:08;;;;;;;111.18;35.08;;;6.30;99.90;;;;;;4997817;28;20022;-77
2022/03/15 06:41:39;;;;;;;91.75;37.33;;;6.30;99.90;;;;;;5002575;28;20031;-76
2022/03/15 06:44:06;;;;;;;96.03;39.85;;;6.30;99.90;;;;;;5001259;28;20029;-73
2022/03/15 06:46:32;;;;;;;111.10;42.40;;;6.40;99.90;;;;;;4985327;28;20022;-76
2022/03/15 06:48:57;;;;;;;119.57;45.00;;;6.40;99.90;;;;;;4995930;28;20057;-74
2022/03/15 06:51:23;;;;;;;114.80;45.90;;;6.50;99.90;;;;;;4996669;28;20022;-74
2022/03/15 06:53:48;;;;;;;114.80;44.05;;;6.60;99.90;;;;;;4995117;28;20391;-74
2022/03/15 06:56:14;;;;;;;134.82;49.35;;;6.60;99.90;;;;;;4997614;28;20026;-75
2022/03/15 06:58:40;;;;;;;120.35;46.50;;;6.60;99.90;;;;;;5002873;28;20027;-74
2022/03/15 07:01:05;;;;;;;119.10;46.30;;;6.60;99.90;;;;;;4993806;28;20105;-76
2022/03/15 07:03:31;;;;;;;144.73;47.28;;;6.60;99.90;;;;;;4994703;28;20053;-73
2022/03/15 07:05:56;;;;;;;121.80;45.97;;;6.60;99.90;;;;;;4998209;28;20027;-74
2022/03/15 07:08:22;;;;;;;110.40;45.47;;;6.70;99.90;;;;;;4993208;28;20117;-75
2022/03/15 07:10:47;;;;;;;126.63;47.08;;;6.80;99.90;;;;;;4992514;28;20023;-75
2022/03/15 07:13:13;;;;;;;130.57;48.00;;;6.90;99.90;;;;;;4993033;28;20033;-73
2022/03/15 07:15:38;;;;;;;122.20;47.97;;;7.00;99.90;;;;;;4993348;28;20053;-73
2022/03/15 07:18:04;;;;;;;122.93;46.75;;;7.00;99.90;;;;;;4992566;28;20113;-74
2022/03/15 07:20:30;;;;;;;131.88;48.75;;;7.00;99.90;;;;;;4993589;28;20105;-75
2022/03/15 07:22:55;;;;;;;145.32;51.35;;;7.00;99.90;;;;;;4993370;28;20026;-73
2022/03/15 07:25:22;;;;;;;139.38;50.47;;;7.00;99.90;;;;;;4992887;28;20468;-75
2022/03/15 07:27:48;;;;;;;131.50;50.72;;;7.00;99.90;;;;;;4994621;28;20026;-76
2022/03/15 07:30:15;;;;;;;147.27;52.78;;;7.00;99.90;;;;;;4994731;28;20038;-76
2022/03/15 07:32:40;;;;;;;133.25;50.70;;;7.00;99.90;;;;;;4994494;28;20340;-74
2022/03/15 07:35:07;;;;;;;140.57;51.58;;;7.00;99.90;;;;;;4996191;28;20022;-74
2022/03/15 07:37:33;;;;;;;151.68;51.58;;;7.10;99.90;;;;;;4994183;28;20019;-72
2022/03/15 07:39:58;;;;;;;132.18;49.00;;;7.10;99.90;;;;;;4992875;28;20029;-76
2022/03/15 07:42:25;;;;;;;129.35;47.65;;;7.10;99.90;;;;;;4993889;28;20034;-76
2022/03/15 07:44:51;;;;;;;133.68;49.55;;;7.20;99.90;;;;;;4995984;28;20026;-72
2022/03/15 07:47:16;;;;;;;128.48;48.70;;;7.20;99.90;;;;;;4996597;28;20080;-74
2022/03/15 07:49:42;;;;;;;136.50;49.28;;;7.30;99.90;;;;;;4996835;28;20499;-74
2022/03/15 07:52:10;;;;;;;144.40;49.47;;;7.40;99.90;;;;;;4996845;28;20037;-76
2022/03/15 07:54:36;;;;;;;149.80;53.10;;;7.40;99.90;;;;;;4998604;28;20015;-75
2022/03/15 07:57:02;;;;;;;152.90;50.25;;;7.60;99.90;;;;;;4998582;28;20026;-73
2022/03/15 07:59:28;;;;;;;133.60;47.65;;;7.60;99.90;;;;;;4996552;28;20116;-72
2022/03/15 08:01:53;;;;;;;134.63;50.20;;;7.50;99.90;;;;;;4996458;28;20112;-72
2022/03/15 08:04:19;;;;;;;141.85;52.17;;;7.50;99.90;;;;;;4996632;28;20041;-75
2022/03/15 08:06:44;;;;;;;127.38;47.50;;;7.60;99.90;;;;;;4996505;28;20396;-75
2022/03/15 08:09:12;;;;;;;129.52;47.40;;;7.70;99.90;;;;;;4996296;28;20096;-74
2022/03/15 08:11:40;;;;;;;111.53;43.88;;;7.90;99.90;;;;;;4991658;28;20465;-74
2022/03/15 08:14:07;;;;;;;143.02;50.08;;;8.10;99.90;;;;;;4977350;28;20030;-73
2022/03/15 08:16:32;;;;;;;134.40;48.83;;;8.40;99.90;;;;;;4976957;28;20098;-74
2022/03/15 08:18:58;;;;;;;247.55;85.72;;;8.60;99.90;;;;;;4977882;28;20099;-75
2022/03/15 08:21:25;;;;;;;194.35;68.30;;;8.80;99.90;;;;;;4977118;28;20033;-75
2022/03/15 08:23:51;;;;;;;157.38;58.17;;;8.90;99.90;;;;;;4977011;28;20049;-74
2022/03/15 08:26:19;;;;;;;139.20;52.80;;;8.90;99.90;;;;;;4976299;28;20034;-75
2022/03/15 08:28:48;;;;;;;122.97;49.65;;;9.00;99.90;;;;;;4978856;28;20046;-75
2022/03/15 08:31:13;;;;;;;133.88;50.88;;;9.10;99.90;;;;;;4974675;28;20054;-75
2022/03/15 08:33:39;;;;;;;137.98;52.72;;;9.10;99.90;;;;;;4975012;28;20074;-72
2022/03/15 08:36:05;;;;;;;135.65;50.80;;;9.20;99.90;;;;;;4976318;28;20026;-72
2022/03/15 08:38:31;;;;;;;120.75;49.17;;;9.30;99.90;;;;;;4976793;28;20051;-74
2022/03/15 08:40:57;;;;;;;123.15;49.42;;;9.30;99.90;;;;;;4977695;28;20094;-73
2022/03/15 08:43:24;;;;;;;119.00;48.40;;;9.40;99.90;;;;;;4976782;28;20027;-73
2022/03/15 08:45:50;;;;;;;119.03;47.45;;;9.50;99.90;;;;;;4976171;28;20103;-75
2022/03/15 08:48:15;;;;;;;115.97;47.17;;;9.60;99.90;;;;;;4976092;28;20073;-73
2022/03/15 08:50:41;;;;;;;111.30;47.03;;;9.70;99.90;;;;;;4975065;28;20034;-75
2022/03/15 08:53:06;;;;;;;108.53;45.50;;;9.70;99.90;;;;;;4974463;28;20026;-73
2022/03/15 08:55:32;;;;;;;107.30;46.60;;;9.70;99.90;;;;;;4974819;28;20030;-74
2022/03/15 08:57:57;;;;;;;152.20;58.25;;;9.90;99.90;;;;;;4975371;28;20023;-74
2022/03/15 09:00:24;;;;;;;118.32;49.83;;;10.00;99.90;;;;;;4976051;28;20031;-72
2022/03/15 09:02:50;;;;;;;131.98;55.00;;;10.00;99.90;;;;;;4976473;28;20106;-73
2022/03/15 09:05:19;;;;;;;130.05;53.55;;;10.00;99.90;;;;;;4976273;28;20023;-75
2022/03/15 09:07:47;;;;;;;134.25;54.40;;;10.10;99.90;;;;;;4975393;28;20026;-75
2022/03/15 09:10:12;;;;;;;143.25;57.63;;;10.10;99.90;;;;;;4976434;28;20015;-74
2022/03/15 09:12:38;;;;;;;147.25;58.78;;;10.10;99.90;;;;;;4976419;28;20029;-73
2022/03/15 09:15:04;;;;;;;155.60;60.90;;;10.10;99.90;;;;;;4976174;28;20096;-74
2022/03/15 09:17:30;;;;;;;143.85;56.38;;;10.10;99.90;;;;;;4975475;28;20046;-73
2022/03/15 09:19:55;;;;;;;149.27;55.67;;;10.10;99.90;;;;;;4976770;28;20034;-75
2022/03/15 09:22:21;;;;;;;132.68;54.17;;;10.10;99.90;;;;;;4976174;28;20027;-74
2022/03/15 09:24:46;;;;;;;137.60;55.15;;;10.10;99.90;;;;;;4984629;28;20054;-73
2022/03/15 09:27:12;;;;;;;157.43;61.97;;;10.00;99.90;;;;;;4985478;28;20400;-74
2022/03/15 09:29:38;;;;;;;156.23;54.45;;;10.00;99.90;;;;;;4982938;28;20061;-74
2022/03/15 09:32:04;;;;;;;132.63;51.90;;;10.10;99.90;;;;;;4980650;28;20050;-71
2022/03/15 09:34:30;;;;;;;146.75;56.65;;;10.00;99.90;;;;;;4978396;28;20106;-73
2022/03/15 09:36:59;;;;;;;126.35;50.88;;;10.10;99.90;;;;;;4977750;28;20144;-75
2022/03/15 09:39:25;;;;;;;125.97;53.15;;;10.10;99.90;;;;;;4977477;28;20502;-73
2022/03/15 09:41:53;;;;;;;143.32;57.47;;;10.10;99.90;;;;;;4977567;28;20140;-74
2022/03/15 09:44:20;;;;;;;126.50;52.72;;;10.20;99.90;;;;;;4977038;28;20031;-75
2022/03/15 09:46:51;;;;;;;143.35;58.00;;;10.20;99.90;;;;;;4975955;28;20034;-75
2022/03/15 09:49:18;;;;;;;131.32;52.80;;;10.20;99.90;;;;;;4976011;28;20042;-73
2022/03/15 09:51:47;;;;;;;124.43;53.90;;;10.20;99.90;;;;;;4975396;28;20082;-75
2022/03/15 09:54:14;;;;;;;134.15;54.10;;;10.30;99.90;;;;;;4975908;28;20138;-73
2022/03/15 09:56:41;;;;;;;127.95;50.65;;;10.20;99.90;;;;;;4986672;28;20034;-74
2022/03/15 09:59:21;;;;;;;114.20;46.53;;;10.20;99.90;;;;;;4975865;28;20421;-74
2022/03/15 10:01:52;;;;;;;121.63;49.10;;;10.30;99.90;;;;;;4975384;28;20156;-73
2022/03/15 10:04:22;;;;;;;123.40;50.35;;;10.40;99.90;;;;;;4974980;28;20050;-75
2022/03/15 10:06:48;;;;;;;107.57;44.30;;;10.50;99.90;;;;;;4974112;28;20034;-73
2022/03/15 10:09:14;;;;;;;106.10;44.17;;;10.60;99.90;;;;;;4975149;28;20159;-74
2022/03/15 10:11:41;;;;;;;103.85;43.22;;;10.70;99.90;;;;;;4975188;28;20027;-75
2022/03/15 10:14:08;;;;;;;102.05;42.45;;;10.70;99.90;;;;;;4976420;28;20023;-76
2022/03/15 10:16:36;;;;;;;103.47;41.80;;;10.70;99.90;;;;;;4975160;28;20153;-74
2022/03/15 10:19:02;;;;;;;116.72;45.95;;;10.70;99.90;;;;;;4976552;28;20030;-79
2022/03/15 10:21:57;;;;;;;114.60;45.90;;;10.80;99.90;;;;;;4977260;28;20049;-78
2022/03/15 10:24:28;;;;;;;105.97;45.20;;;10.90;99.90;;;;;;4966737;28;20059;-77
2022/03/15 10:26:56;;;;;;;104.55;43.42;;;11.00;99.90;;;;;;4982577;28;20030;-76
2022/03/15 10:29:26;;;;;;;124.30;50.60;;;11.10;99.90;;;;;;4980693;28;20038;-76
2022/03/15 10:31:52;;;;;;;126.90;49.13;;;11.20;99.90;;;;;;4981773;28;20030;-78
2022/03/15 10:34:18;;;;;;;156.68;55.38;;;11.30;99.90;;;;;;4985541;28;20031;-78
2022/03/15 10:36:49;;;;;;;148.27;53.85;;;11.40;99.90;;;;;;4985816;28;20026;-77
2022/03/15 10:39:17;;;;;;;115.53;48.83;;;11.40;99.90;;;;;;4983496;28;20488;-79
2022/03/15 10:41:51;;;;;;;129.15;49.72;;;11.60;99.90;;;;;;4983612;28;20038;-76
2022/03/15 10:44:25;;;;;;;125.68;49.58;;;11.60;99.90;;;;;;4982142;28;20113;-75
2022/03/15 10:47:03;;;;;;;151.60;53.45;;;11.60;99.90;;;;;;4982429;28;20034;-78
2022/03/15 10:49:30;;;;;;;140.43;51.53;;;11.80;99.90;;;;;;4983559;28;20031;-75
2022/03/15 10:51:57;;;;;;;119.55;47.47;;;11.90;99.90;;;;;;4979727;28;20050;-78
2022/03/15 10:54:24;;;;;;;116.53;46.47;;;11.90;99.90;;;;;;4982791;28;20034;-77
2022/03/15 10:56:59;;;;;;;107.38;43.92;;;11.90;99.90;;;;;;4983106;28;20027;-76
2022/03/15 10:59:25;;;;;;;111.80;44.55;;;12.00;99.90;;;;;;4979373;28;20027;-77
2022/03/15 11:01:52;;;;;;;115.90;44.00;;;12.10;99.90;;;;;;4984366;28;20026;-78
2022/03/15 11:04:18;;;;;;;100.57;44.30;;;12.10;99.90;;;;;;4981979;28;20118;-77
2022/03/15 11:06:46;;;;;;;90.68;39.00;;;12.10;99.90;;;;;;4984679;28;20062;-77
2022/03/15 11:09:23;;;;;;;99.32;39.42;;;12.20;99.90;;;;;;4985433;28;20031;-77
2022/03/15 11:12:07;;;;;;;109.00;38.97;;;12.20;99.90;;;;;;4982643;28;20022;-76
2022/03/15 11:14:40;;;;;;;115.63;44.53;;;;;;;;;;4986077;28;20043;-77
2022/03/15 11:17:20;;;;;;;92.88;38.17;;;12.20;99.90;;;;;;4988689;28;20023;-77
2022/03/15 11:19:57;;;;;;;91.13;35.72;;;12.30;99.90;;;;;;4987372;28;20027;-78
2022/03/15 11:22:27;;;;;;;101.80;37.47;;;12.30;99.90;;;;;;4990401;28;20027;-76
2022/03/15 11:24:59;;;;;;;81.50;35.22;;;12.40;99.90;;;;;;4982817;28;20389;-75
2022/03/15 11:27:33;;;;;;;89.88;34.60;;;12.50;99.90;;;;;;4980448;28;20065;-78
2022/03/15 11:30:05;;;;;;;95.35;40.05;;;12.60;99.90;;;;;;4976825;28;20029;-77
2022/03/15 11:32:33;;;;;;;197.13;98.13;;;12.80;99.90;;;;;;4975807;28;20033;-76
2022/03/15 11:34:59;;;;;;;91.55;37.20;;;12.90;99.90;;;;;;4977040;28;20435;-78
2022/03/15 11:37:25;;;;;;;83.95;34.13;;;13.00;99.90;;;;;;4978459;28;20047;-77
2022/03/15 11:39:52;;;;;;;77.47;30.90;;;13.00;99.90;;;;;;4978734;28;20392;-77
2022/03/15 11:42:19;;;;;;;66.78;29.60;;;13.00;99.90;;;;;;4978819;28;20149;-76
2022/03/15 11:45:05;;;;;;;75.43;30.90;;;13.00;99.90;;;;;;4976321;28;20094;-79
2022/03/15 11:47:43;;;;;;;82.78;32.13;;;13.10;99.90;;;;;;4978091;28;20031;-77
2022/03/15 11:50:19;;;;;;;70.63;29.10;;;13.20;99.90;;;;;;4977345;28;20026;-77
2022/03/15 11:53:12;;;;;;;69.68;27.88;;;13.20;99.90;;;;;;4979715;28;20119;-76
2022/03/15 11:55:53;;;;;;;79.63;31.45;;;13.30;99.90;;;;;;4978423;28;20026;-79
2022/03/15 11:58:27;;;;;;;67.30;29.40;;;13.50;99.90;;;;;;4975877;28;20026;-77
2022/03/15 12:00:54;;;;;;;66.03;29.40;;;13.50;99.90;;;;;;4976175;28;20023;-76
2022/03/15 12:03:23;;;;;;;71.25;29.40;;;13.60;99.90;;;;;;4980711;28;20094;-77
2022/03/15 12:05:55;;;;;;;76.75;30.05;;;13.60;99.90;;;;;;4978424;28;20400;-75
2022/03/15 12:08:26;;;;;;;69.28;29.00;;;13.50;99.90;;;;;;4979354;28;20058;-77
2022/03/15 12:11:03;;;;;;;66.57;26.75;;;13.50;99.90;;;;;;4980034;28;20050;-77
2022/03/15 12:13:50;;;;;;;63.90;26.83;;;13.60;99.90;;;;;;4982468;28;20034;-77
2022/03/15 12:16:25;;;;;;;61.95;26.27;;;13.50;99.90;;;;;;4979359;28;20026;-75
2022/03/15 12:19:13;;;;;;;59.05;23.75;;;13.60;99.90;;;;;;4983387;28;20444;-77
2022/03/15 12:21:52;;;;;;;57.95;24.98;;;13.60;99.90;;;;;;4976838;28;20081;-77
2022/03/15 12:24:28;;;;;;;50.00;22.90;;;13.70;99.90;;;;;;4976948;28;20073;-76
2022/03/15 12:27:15;;;;;;;64.70;24.90;;;13.70;99.90;;;;;;4973969;28;20030;-77
2022/03/15 12:29:53;;;;;;;56.97;23.80;;;13.70;99.90;;;;;;4976482;28;20030;-76
2022/03/15 12:32:20;;;;;;;51.28;22.25;;;13.60;99.90;;;;;;4977446;28;20059;-77
2022/03/15 12:34:54;;;;;;;55.38;21.85;;;13.70;99.90;;;;;;4978757;28;20114;-77
2022/03/15 12:37:34;;;;;;;47.72;20.77;;;13.70;99.90;;;;;;4978508;28;20396;-76
2022/03/15 12:40:03;;;;;;;46.70;19.15;;;13.60;99.90;;;;;;4977236;28;20027;-76
2022/03/15 12:42:29;;;;;;;56.72;20.88;;;13.60;99.90;;;;;;4978330;28;20511;-76
2022/03/15 12:45:03;;;;;;;47.75;20.85;;;13.60;99.90;;;;;;4980379;28;20039;-76
2022/03/15 12:47:32;;;;;;;58.53;22.40;;;13.60;99.90;;;;;;4981096;28;20428;-79
2022/03/15 12:50:17;;;;;;;53.97;22.45;;;13.70;99.90;;;;;;4980547;28;20031;-77
2022/03/15 12:53:07;;;;;;;53.17;21.50;;;13.80;99.90;;;;;;4984776;28;20030;-77
2022/03/15 12:55:41;;;;;;;49.40;19.52;;;13.80;99.90;;;;;;4986651;28;20023;-78
2022/03/15 12:58:09;;;;;;;58.28;21.23;;;13.70;99.90;;;;;;4980318;28;20154;-76
2022/03/15 13:00:43;;;;;;;47.85;20.35;;;13.80;99.90;;;;;;4977165;28;20027;-76
2022/03/15 13:03:11;;;;;;;56.50;22.05;;;13.80;99.90;;;;;;4985034;28;20095;-73
2022/03/15 13:05:44;;;;;;;51.38;22.08;;;13.70;99.90;;;;;;4984651;28;20065;-77
2022/03/15 13:08:11;;;;;;;48.40;22.55;;;13.70;99.90;;;;;;4989711;28;20046;-78
2022/03/15 13:10:42;;;;;;;52.95;21.55;;;13.60;99.90;;;;;;4976027;28;20046;-76
2022/03/15 13:13:18;;;;;;;56.40;23.35;;;13.60;99.90;;;;;;4978232;28;20019;-79
2022/03/15 13:16:03;;;;;;;54.00;20.15;;;13.60;99.90;;;;;;4981377;28;20038;-77
2022/03/15 13:18:31;;;;;;;43.90;19.98;;;13.60;99.90;;;;;;4982996;28;20138;-77
2022/03/15 13:21:01;;;;;;;50.10;23.27;;;13.60;99.90;;;;;;4981752;28;20647;-80
2022/03/15 13:23:34;;;;;;;52.13;23.83;;;13.50;99.90;;;;;;4982138;28;20083;-79
2022/03/15 13:26:07;;;;;;;47.03;20.45;;;13.60;99.90;;;;;;4980577;28;20027;-78
2022/03/15 13:28:40;;;;;;;53.25;18.05;;;13.70;99.90;;;;;;4978585;28;20030;-76
2022/03/15 13:31:07;;;;;;;43.40;17.63;;;13.70;99.90;;;;;;4982859;28;20110;-80
2022/03/15 13:33:40;;;;;;;45.55;18.10;;;13.70;99.90;;;;;;4983352;28;20031;-78
2022/03/15 13:36:14;;;;;;;50.35;18.45;;;13.90;99.90;;;;;;4985172;28;20022;-76
2022/03/15 13:38:53;;;;;;;44.33;18.73;;;13.90;99.90;;;;;;4985262;28;20015;-77
2022/03/15 13:41:25;;;;;;;47.15;18.60;;;14.00;99.90;;;;;;4983837;28;20035;-78
2022/03/15 13:43:52;;;;;;;53.38;18.98;;;14.00;99.90;;;;;;4984311;28;20023;-79
2022/03/15 13:46:19;;;;;;;39.63;17.20;;;14.00;99.90;;;;;;4994384;28;20022;-75
2022/03/15 13:48:48;;;;;;;42.90;18.00;;;14.00;99.90;;;;;;4987091;28;20022;-78
2022/03/15 13:51:22;;;;;;;47.28;19.65;;;13.90;99.90;;;;;;4989603;28;20007;-76
2022/03/15 13:53:47;;;;;;;49.80;19.13;;;13.90;99.90;;;;;;4992429;28;20029;-76
2022/03/15 13:56:17;;;;;;;43.10;17.15;;;13.90;99.90;;;;;;4993833;28;20039;-77
2022/03/15 13:58:47;;;;;;;53.50;20.38;;;13.80;99.90;;;;;;4986513;28;20110;-76
2022/03/15 14:01:14;;;;;;;52.92;19.23;;;13.90;99.90;;;;;;4982342;28;20077;-77
2022/03/15 14:03:41;;;;;;;48.72;19.15;;;14.00;99.90;;;;;;4981709;28;20027;-76
2022/03/15 14:06:09;;;;;;;51.00;20.05;;;14.00;99.90;;;;;;4983493;28;20074;-79
2022/03/15 14:08:49;;;;;;;47.65;18.77;;;14.00;99.90;;;;;;4987070;28;20038;-79
2022/03/15 14:11:19;;;;;;;51.20;18.63;;;14.00;99.90;;;;;;4987652;28;20117;-77
2022/03/15 14:13:56;;;;;;;41.70;17.75;;;14.00;99.90;;;;;;4983708;28;20061;-77
2022/03/15 14:16:36;;;;;;;54.47;19.83;;;14.00;99.90;;;;;;4983094;28;20045;-78
2022/03/15 14:19:04;;;;;;;45.78;18.65;;;14.10;99.90;;;;;;4991340;28;20023;-76
2022/03/15 14:21:30;;;;;;;49.97;19.77;;;14.20;99.90;;;;;;4994062;28;20007;-76
2022/03/15 14:23:57;;;;;;;46.22;17.08;;;14.20;99.90;;;;;;4986010;28;20078;-77
2022/03/15 14:26:28;;;;;;;43.63;16.80;;;14.30;99.90;;;;;;4981957;28;20380;-79
2022/03/15 14:28:56;;;;;;;40.75;17.35;;;14.30;99.90;;;;;;4982165;28;20027;-77
2022/03/15 14:31:30;;;;;;;39.15;17.10;;;14.30;99.90;;;;;;4980925;28;20038;-76
2022/03/15 14:34:06;;;;;;;38.30;16.13;;;14.20;99.90;;;;;;4976663;28;20496;-77
2022/03/15 14:36:34;;;;;;;42.20;16.02;;;14.10;99.90;;;;;;4980818;28;20047;-78
2022/03/15 14:39:19;;;;;;;51.33;17.73;;;14.20;99.90;;;;;;4981245;28;20499;-78
2022/03/15 14:41:46;;;;;;;44.42;18.10;;;14.10;99.90;;;;;;4981985;28;20035;-79
2022/03/15 14:44:12;;;;;;;40.03;16.30;;;14.10;99.90;;;;;;4983493;28;20063;-77
2022/03/15 14:46:44;;;;;;;45.53;18.88;;;14.10;99.90;;;;;;4978420;28;20023;-76